createdAt,value
2023-03-05T00:00:29.733Z,80
2023-03-05T00:00:45.657Z,80
2023-03-05T00:01:17.477Z,80
2023-03-05T00:02:01.464Z,80
2023-03-05T00:02:33.455Z,80
2023-03-05T00:03:05.600Z,80
2023-03-05T00:03:37.246Z,80
2023-03-05T00:04:09.232Z,80
2023-03-05T00:04:41.390Z,80
2023-03-05T00:05:13.341Z,80
2023-03-05T00:05:29.277Z,80
2023-03-05T00:06:13.112Z,80
2023-03-05T00:06:45.324Z,80
2023-03-05T00:07:17.265Z,81
2023-03-05T00:07:49.039Z,81
2023-03-05T00:08:21.034Z,81
2023-03-05T00:08:53.023Z,81
2023-03-05T00:09:25.070Z,81
2023-03-05T00:09:57.038Z,81
2023-03-05T00:10:13.358Z,81
2023-03-05T00:10:45.027Z,81
2023-03-05T00:11:00.950Z,81
2023-03-05T00:11:32.916Z,81
2023-03-05T00:12:05.109Z,81
2023-03-05T00:12:36.805Z,81
2023-03-05T00:13:09.001Z,81
2023-03-05T00:13:40.840Z,81
2023-03-05T00:14:12.607Z,81
2023-03-05T00:14:28.832Z,81
2023-03-05T00:15:02.590Z,81
2023-03-05T00:15:44.901Z,81
2023-03-05T00:16:17.126Z,81
2023-03-05T00:16:49.473Z,81
2023-03-05T00:17:20.682Z,81
2023-03-05T00:17:52.605Z,81
2023-03-05T00:18:24.862Z,81
2023-03-05T00:18:56.535Z,81
2023-03-05T00:19:12.757Z,81
2023-03-05T00:19:56.527Z,81
2023-03-05T00:20:28.920Z,81
2023-03-05T00:21:00.518Z,81
2023-03-05T00:21:32.439Z,81
2023-03-05T00:22:04.746Z,81
2023-03-05T00:22:36.394Z,81
2023-03-05T00:23:08.561Z,81
2023-03-05T00:23:40.256Z,81
2023-03-05T00:24:12.376Z,81
2023-03-05T00:24:44.440Z,81
2023-03-05T00:25:16.546Z,81
2023-03-05T00:25:48.208Z,81
2023-03-05T00:26:20.216Z,81
2023-03-05T00:26:52.327Z,82
2023-03-05T00:27:24.225Z,82
2023-03-05T00:27:56.202Z,82
2023-03-05T00:28:12.317Z,82
2023-03-05T00:28:44.122Z,82
2023-03-05T00:29:00.203Z,82
2023-03-05T00:29:32.181Z,82
2023-03-05T00:30:08.244Z,82
2023-03-05T00:30:36.046Z,82
2023-03-05T00:31:08.373Z,81
2023-03-05T00:31:40.139Z,81
2023-03-05T00:32:12.165Z,81
2023-03-05T00:32:28.335Z,81
2023-03-05T00:32:59.977Z,81
2023-03-05T00:33:44.110Z,82
2023-03-05T00:34:15.981Z,82
2023-03-05T00:34:48.102Z,82
2023-03-05T00:35:20.219Z,82
2023-03-05T00:35:52.376Z,82
2023-03-05T00:36:23.983Z,82
2023-03-05T00:36:55.789Z,82
2023-03-05T00:37:11.986Z,82
2023-03-05T00:37:55.736Z,82
2023-03-05T00:38:27.863Z,83
2023-03-05T00:38:59.848Z,83
2023-03-05T00:39:31.611Z,83
2023-03-05T00:40:04.405Z,83
2023-03-05T00:40:35.979Z,83
2023-03-05T00:41:07.846Z,83
2023-03-05T00:41:39.505Z,82
2023-03-05T00:42:11.664Z,82
2023-03-05T00:42:43.570Z,82
2023-03-05T00:43:15.578Z,82
2023-03-05T00:43:47.551Z,82
2023-03-05T00:44:19.499Z,82
2023-03-05T00:44:51.442Z,82
2023-03-05T00:45:23.920Z,82
2023-03-05T00:45:55.473Z,81
2023-03-05T00:46:11.668Z,81
2023-03-05T00:46:43.416Z,81
2023-03-05T00:46:59.465Z,81
2023-03-05T00:47:31.941Z,81
2023-03-05T00:48:03.797Z,81
2023-03-05T00:48:19.410Z,81
2023-03-05T00:48:51.313Z,81
2023-03-05T00:49:35.392Z,81
2023-03-05T00:50:07.688Z,81
2023-03-05T00:50:39.278Z,81
2023-03-05T00:51:11.305Z,81
2023-03-05T00:51:43.394Z,81
2023-03-05T00:52:15.345Z,81
2023-03-05T00:52:47.196Z,82
2023-03-05T00:53:19.263Z,82
2023-03-05T00:53:51.088Z,82
2023-03-05T00:54:23.176Z,83
2023-03-05T00:54:54.943Z,83
2023-03-05T00:55:11.365Z,83
2023-03-05T00:55:54.945Z,83
2023-03-05T00:56:27.235Z,83
2023-03-05T00:56:58.996Z,83
2023-03-05T00:57:30.860Z,83
2023-03-05T00:58:03.473Z,83
2023-03-05T00:58:34.963Z,83
2023-03-05T00:59:06.960Z,83
2023-03-05T00:59:38.936Z,83
2023-03-05T01:00:11.506Z,83
2023-03-05T01:00:42.947Z,83
2023-03-05T01:01:14.991Z,83
2023-03-05T01:01:46.799Z,83
2023-03-05T01:02:18.792Z,83
2023-03-05T01:02:50.722Z,83
2023-03-05T01:03:22.765Z,83
2023-03-05T01:03:54.611Z,83
2023-03-05T01:04:26.803Z,83
2023-03-05T01:04:58.710Z,83
2023-03-05T01:05:30.932Z,83
2023-03-05T01:06:03.153Z,83
2023-03-05T01:06:34.672Z,83
2023-03-05T01:07:06.605Z,83
2023-03-05T01:07:38.764Z,83
2023-03-05T01:08:10.487Z,83
2023-03-05T01:08:26.733Z,83
2023-03-05T01:08:58.499Z,83
2023-03-05T01:09:42.558Z,83
2023-03-05T01:10:14.874Z,84
2023-03-05T01:10:46.273Z,84
2023-03-05T01:11:18.455Z,84
2023-03-05T01:11:50.334Z,84
2023-03-05T01:12:22.479Z,83
2023-03-05T01:12:54.165Z,84
2023-03-05T01:13:10.545Z,84
2023-03-05T01:13:54.475Z,84
2023-03-05T01:14:26.327Z,84
2023-03-05T01:14:58.386Z,84
2023-03-05T01:15:30.659Z,84
2023-03-05T01:16:02.603Z,84
2023-03-05T01:16:34.437Z,84
2023-03-05T01:17:06.279Z,84
2023-03-05T01:17:38.272Z,84
2023-03-05T01:18:10.133Z,84
2023-03-05T01:18:42.248Z,84
2023-03-05T01:19:14.272Z,84
2023-03-05T01:19:45.909Z,84
2023-03-05T01:20:18.456Z,84
2023-03-05T01:20:50.024Z,84
2023-03-05T01:21:22.168Z,84
2023-03-05T01:21:54.141Z,84
2023-03-05T01:22:25.948Z,84
2023-03-05T01:22:58.045Z,84
2023-03-05T01:23:29.910Z,83
2023-03-05T01:24:02.292Z,83
2023-03-05T01:24:33.877Z,83
2023-03-05T01:25:06.226Z,83
2023-03-05T01:25:37.992Z,83
2023-03-05T01:26:09.942Z,83
2023-03-05T01:26:25.806Z,83
2023-03-05T01:26:58.775Z,83
2023-03-05T01:27:41.888Z,83
2023-03-05T01:28:13.573Z,83
2023-03-05T01:28:45.720Z,83
2023-03-05T01:29:17.805Z,83
2023-03-05T01:29:49.562Z,83
2023-03-05T01:30:21.909Z,83
2023-03-05T01:30:53.574Z,83
2023-03-05T01:31:09.708Z,83
2023-03-05T01:31:53.731Z,83
2023-03-05T01:32:25.794Z,83
2023-03-05T01:32:57.700Z,83
2023-03-05T01:33:29.504Z,83
2023-03-05T01:34:01.602Z,83
2023-03-05T01:34:33.513Z,83
2023-03-05T01:35:05.632Z,83
2023-03-05T01:35:37.688Z,83
2023-03-05T01:36:09.517Z,83
2023-03-05T01:36:41.571Z,83
2023-03-05T01:37:13.208Z,84
2023-03-05T01:37:45.440Z,84
2023-03-05T01:38:17.462Z,84
2023-03-05T01:38:49.320Z,84
2023-03-05T01:39:21.197Z,84
2023-03-05T01:39:53.286Z,83
2023-03-05T01:40:25.521Z,83
2023-03-05T01:40:57.396Z,84
2023-03-05T01:41:29.155Z,83
2023-03-05T01:42:01.091Z,83
2023-03-05T01:42:33.206Z,84
2023-03-05T01:43:05.500Z,84
2023-03-05T01:43:37.238Z,83
2023-03-05T01:44:09.157Z,83
2023-03-05T01:44:41.141Z,83
2023-03-05T01:45:14.306Z,83
2023-03-05T01:45:45.058Z,83
2023-03-05T01:46:17.086Z,83
2023-03-05T01:46:49.024Z,83
2023-03-05T01:47:20.955Z,83
2023-03-05T01:47:52.783Z,83
2023-03-05T01:48:09.050Z,83
2023-03-05T01:48:52.803Z,83
2023-03-05T01:49:24.937Z,83
2023-03-05T01:49:56.803Z,82
2023-03-05T01:50:28.989Z,82
2023-03-05T01:51:00.731Z,82
2023-03-05T01:51:32.648Z,83
2023-03-05T01:52:05.084Z,83
2023-03-05T01:52:36.535Z,83
2023-03-05T01:53:08.726Z,82
2023-03-05T01:53:40.625Z,83
2023-03-05T01:54:12.675Z,82
2023-03-05T01:54:44.646Z,82
2023-03-05T01:55:16.713Z,83
2023-03-05T01:55:48.747Z,83
2023-03-05T01:56:21.222Z,83
2023-03-05T01:56:52.377Z,83
2023-03-05T01:57:24.455Z,83
2023-03-05T01:57:40.613Z,83
2023-03-05T01:58:24.423Z,82
2023-03-05T01:58:56.420Z,82
2023-03-05T01:59:28.393Z,82
2023-03-05T02:00:00.846Z,81
2023-03-05T02:00:32.292Z,81
2023-03-05T02:01:04.575Z,81
2023-03-05T02:01:36.266Z,81
2023-03-05T02:02:08.264Z,81
2023-03-05T02:02:40.153Z,81
2023-03-05T02:03:12.353Z,81
2023-03-05T02:03:44.101Z,81
2023-03-05T02:04:16.203Z,81
2023-03-05T02:04:48.179Z,82
2023-03-05T02:05:20.402Z,82
2023-03-05T02:05:52.283Z,82
2023-03-05T02:06:08.252Z,82
2023-03-05T02:06:52.100Z,82
2023-03-05T02:07:23.968Z,82
2023-03-05T02:07:56.012Z,82
2023-03-05T02:08:28.067Z,82
2023-03-05T02:09:00.051Z,82
2023-03-05T02:09:31.915Z,82
2023-03-05T02:10:04.813Z,82
2023-03-05T02:10:35.833Z,82
2023-03-05T02:11:08.025Z,82
2023-03-05T02:11:24.027Z,82
2023-03-05T02:12:08.108Z,81
2023-03-05T02:12:39.936Z,81
2023-03-05T02:13:11.720Z,81
2023-03-05T02:13:43.654Z,81
2023-03-05T02:14:16.080Z,81
2023-03-05T02:14:47.859Z,81
2023-03-05T02:15:20.035Z,81
2023-03-05T02:15:51.713Z,81
2023-03-05T02:16:08.037Z,81
2023-03-05T02:16:39.914Z,81
2023-03-05T02:16:55.897Z,81
2023-03-05T02:17:27.620Z,81
2023-03-05T02:17:59.608Z,81
2023-03-05T02:18:31.505Z,81
2023-03-05T02:19:04.229Z,81
2023-03-05T02:19:35.365Z,81
2023-03-05T02:20:07.766Z,81
2023-03-05T02:20:39.580Z,82
2023-03-05T02:21:11.569Z,82
2023-03-05T02:21:43.349Z,82
2023-03-05T02:22:15.457Z,82
2023-03-05T02:22:47.374Z,82
2023-03-05T02:23:19.497Z,82
2023-03-05T02:23:51.296Z,82
2023-03-05T02:24:23.235Z,82
2023-03-05T02:24:55.265Z,82
2023-03-05T02:25:27.626Z,82
2023-03-05T02:25:59.289Z,82
2023-03-05T02:26:31.185Z,82
2023-03-05T02:27:04.144Z,82
2023-03-05T02:27:35.346Z,82
2023-03-05T02:28:07.244Z,82
2023-03-05T02:28:23.215Z,82
2023-03-05T02:29:07.270Z,82
2023-03-05T02:29:39.220Z,82
2023-03-05T02:30:11.999Z,82
2023-03-05T02:30:43.124Z,82
2023-03-05T02:31:15.103Z,82
2023-03-05T02:31:47.086Z,82
2023-03-05T02:32:19.332Z,82
2023-03-05T02:32:50.861Z,82
2023-03-05T02:33:07.206Z,82
2023-03-05T02:33:39.270Z,82
2023-03-05T02:34:23.089Z,82
2023-03-05T02:34:55.050Z,82
2023-03-05T02:35:27.102Z,82
2023-03-05T02:35:58.897Z,82
2023-03-05T02:36:30.923Z,82
2023-03-05T02:37:03.735Z,82
2023-03-05T02:37:34.804Z,82
2023-03-05T02:38:06.680Z,82
2023-03-05T02:38:38.969Z,82
2023-03-05T02:39:10.855Z,82
2023-03-05T02:39:42.659Z,82
2023-03-05T02:40:14.813Z,82
2023-03-05T02:40:46.603Z,82
2023-03-05T02:41:18.852Z,82
2023-03-05T02:41:50.492Z,82
2023-03-05T02:42:06.642Z,82
2023-03-05T02:42:50.583Z,82
2023-03-05T02:43:22.581Z,82
2023-03-05T02:43:54.931Z,82
2023-03-05T02:44:26.309Z,82
2023-03-05T02:44:58.622Z,82
2023-03-05T02:45:30.956Z,83
2023-03-05T02:46:03.387Z,82
2023-03-05T02:46:34.430Z,83
2023-03-05T02:47:06.444Z,83
2023-03-05T02:47:22.630Z,83
2023-03-05T02:48:06.487Z,83
2023-03-05T02:48:38.453Z,83
2023-03-05T02:49:10.256Z,82
2023-03-05T02:49:42.346Z,83
2023-03-05T02:50:14.608Z,83
2023-03-05T02:50:46.329Z,83
2023-03-05T02:51:18.133Z,83
2023-03-05T02:51:50.029Z,83
2023-03-05T02:52:06.273Z,83
2023-03-05T02:52:38.098Z,83
2023-03-05T02:52:54.307Z,83
2023-03-05T02:53:25.991Z,83
2023-03-05T02:53:58.083Z,82
2023-03-05T02:54:30.010Z,82
2023-03-05T02:55:02.845Z,82
2023-03-05T02:55:33.976Z,82
2023-03-05T02:56:05.898Z,82
2023-03-05T02:56:38.084Z,82
2023-03-05T02:57:10.021Z,82
2023-03-05T02:57:41.781Z,82
2023-03-05T02:58:13.850Z,82
2023-03-05T02:58:45.933Z,82
2023-03-05T02:59:17.887Z,82
2023-03-05T02:59:49.790Z,82
2023-03-05T03:00:06.862Z,82
2023-03-05T03:00:50.037Z,82
2023-03-05T03:01:22.062Z,82
2023-03-05T03:01:53.827Z,82
2023-03-05T03:02:25.686Z,82
2023-03-05T03:02:57.989Z,82
2023-03-05T03:03:29.893Z,82
2023-03-05T03:04:02.202Z,82
2023-03-05T03:04:33.662Z,82
2023-03-05T03:05:06.019Z,82
2023-03-05T03:05:21.878Z,82
2023-03-05T03:06:05.752Z,82
2023-03-05T03:06:37.750Z,82
2023-03-05T03:07:09.470Z,82
2023-03-05T03:07:41.417Z,82
2023-03-05T03:08:13.528Z,83
2023-03-05T03:08:45.525Z,82
2023-03-05T03:09:17.333Z,82
2023-03-05T03:09:49.481Z,82
2023-03-05T03:10:21.812Z,83
2023-03-05T03:10:53.392Z,83
2023-03-05T03:11:25.349Z,83
2023-03-05T03:11:57.407Z,83
2023-03-05T03:12:29.324Z,82
2023-03-05T03:13:01.604Z,82
2023-03-05T03:13:33.143Z,82
2023-03-05T03:14:05.439Z,82
2023-03-05T03:14:37.392Z,82
2023-03-05T03:15:10.482Z,82
2023-03-05T03:15:41.086Z,82
2023-03-05T03:16:13.107Z,82
2023-03-05T03:16:45.113Z,82
2023-03-05T03:17:17.212Z,82
2023-03-05T03:17:49.263Z,82
2023-03-05T03:18:05.304Z,82
2023-03-05T03:18:49.171Z,82
2023-03-05T03:19:20.997Z,82
2023-03-05T03:19:53.047Z,82
2023-03-05T03:20:25.306Z,82
2023-03-05T03:20:56.853Z,82
2023-03-05T03:21:28.912Z,82
2023-03-05T03:22:01.055Z,82
2023-03-05T03:22:32.834Z,82
2023-03-05T03:23:05.218Z,82
2023-03-05T03:23:36.950Z,82
2023-03-05T03:24:09.013Z,82
2023-03-05T03:24:40.831Z,82
2023-03-05T03:25:13.065Z,83
2023-03-05T03:25:44.843Z,83
2023-03-05T03:26:16.868Z,83
2023-03-05T03:26:48.799Z,83
2023-03-05T03:27:20.739Z,83
2023-03-05T03:27:52.731Z,83
2023-03-05T03:28:24.829Z,83
2023-03-05T03:28:56.524Z,83
2023-03-05T03:29:28.725Z,83
2023-03-05T03:30:02.091Z,83
2023-03-05T03:30:32.701Z,83
2023-03-05T03:31:07.114Z,83
2023-03-05T03:31:22.071Z,83
2023-03-05T03:31:53.091Z,83
2023-03-05T03:32:37.574Z,83
2023-03-05T03:33:08.634Z,83
2023-03-05T03:33:40.495Z,83
2023-03-05T03:34:12.344Z,83
2023-03-05T03:34:44.357Z,83
2023-03-05T03:35:16.831Z,83
2023-03-05T03:35:48.334Z,83
2023-03-05T03:36:04.761Z,83
2023-03-05T03:36:48.562Z,83
2023-03-05T03:37:20.406Z,83
2023-03-05T03:37:52.340Z,83
2023-03-05T03:38:24.191Z,83
2023-03-05T03:38:56.320Z,83
2023-03-05T03:39:28.379Z,83
2023-03-05T03:40:00.634Z,83
2023-03-05T03:40:32.103Z,83
2023-03-05T03:41:04.641Z,83
2023-03-05T03:41:36.263Z,83
2023-03-05T03:42:08.174Z,83
2023-03-05T03:42:40.060Z,83
2023-03-05T03:43:12.051Z,83
2023-03-05T03:43:43.990Z,83
2023-03-05T03:44:16.262Z,83
2023-03-05T03:44:47.870Z,83
2023-03-05T03:45:20.371Z,83
2023-03-05T03:45:52.019Z,83
2023-03-05T03:46:23.992Z,83
2023-03-05T03:46:55.937Z,83
2023-03-05T03:47:27.839Z,83
2023-03-05T03:47:59.923Z,84
2023-03-05T03:48:31.916Z,84
2023-03-05T03:49:04.132Z,84
2023-03-05T03:49:20.083Z,84
2023-03-05T03:49:51.649Z,84
2023-03-05T03:50:36.032Z,84
2023-03-05T03:51:07.895Z,84
2023-03-05T03:51:39.805Z,84
2023-03-05T03:52:11.633Z,84
2023-03-05T03:52:43.766Z,84
2023-03-05T03:53:15.601Z,84
2023-03-05T03:53:47.513Z,84
2023-03-05T03:54:19.701Z,84
2023-03-05T03:54:51.622Z,84
2023-03-05T03:55:23.609Z,84
2023-03-05T03:55:55.802Z,84
2023-03-05T03:56:27.632Z,84
2023-03-05T03:56:59.583Z,85
2023-03-05T03:57:31.419Z,85
2023-03-05T03:58:04.066Z,85
2023-03-05T03:58:19.727Z,85
2023-03-05T03:59:04.186Z,85
2023-03-05T03:59:35.482Z,85
2023-03-05T04:00:09.985Z,85
2023-03-05T04:00:39.335Z,85
2023-03-05T04:01:11.349Z,85
2023-03-05T04:01:43.454Z,85
2023-03-05T04:02:15.281Z,85
2023-03-05T04:02:47.339Z,85
2023-03-05T04:03:19.317Z,85
2023-03-05T04:03:51.402Z,85
2023-03-05T04:04:23.172Z,85
2023-03-05T04:04:55.101Z,85
2023-03-05T04:05:27.447Z,85
2023-03-05T04:05:59.343Z,85
2023-03-05T04:06:30.937Z,85
2023-03-05T04:07:03.465Z,85
2023-03-05T04:07:19.241Z,85
2023-03-05T04:07:50.878Z,85
2023-03-05T04:08:35.184Z,85
2023-03-05T04:09:07.006Z,85
2023-03-05T04:09:38.859Z,85
2023-03-05T04:10:11.431Z,85
2023-03-05T04:10:43.010Z,85
2023-03-05T04:11:14.761Z,85
2023-03-05T04:11:46.941Z,85
2023-03-05T04:12:19.008Z,85
2023-03-05T04:12:50.923Z,85
2023-03-05T04:13:22.879Z,85
2023-03-05T04:13:54.774Z,85
2023-03-05T04:14:26.795Z,85
2023-03-05T04:14:59.076Z,85
2023-03-05T04:15:31.173Z,85
2023-03-05T04:16:03.528Z,85
2023-03-05T04:16:19.086Z,85
2023-03-05T04:17:02.908Z,86
2023-03-05T04:17:34.761Z,86
2023-03-05T04:18:06.556Z,86
2023-03-05T04:18:38.572Z,86
2023-03-05T04:19:10.707Z,86
2023-03-05T04:19:42.596Z,86
2023-03-05T04:20:14.527Z,86
2023-03-05T04:20:46.531Z,86
2023-03-05T04:21:02.922Z,86
2023-03-05T04:21:34.382Z,86
2023-03-05T04:21:50.549Z,86
2023-03-05T04:22:22.619Z,87
2023-03-05T04:22:54.344Z,87
2023-03-05T04:23:26.524Z,87
2023-03-05T04:23:58.319Z,87
2023-03-05T04:24:30.493Z,87
2023-03-05T04:25:02.929Z,87
2023-03-05T04:25:18.366Z,87
2023-03-05T04:25:50.445Z,87
2023-03-05T04:26:34.336Z,87
2023-03-05T04:27:06.090Z,87
2023-03-05T04:27:38.207Z,88
2023-03-05T04:28:10.152Z,88
2023-03-05T04:28:42.190Z,88
2023-03-05T04:29:14.054Z,88
2023-03-05T04:29:45.981Z,88
2023-03-05T04:30:05.332Z,88
2023-03-05T04:30:46.253Z,88
2023-03-05T04:31:18.111Z,88
2023-03-05T04:31:50.057Z,88
2023-03-05T04:32:21.971Z,88
2023-03-05T04:32:53.981Z,88
2023-03-05T04:33:26.093Z,88
2023-03-05T04:33:57.983Z,88
2023-03-05T04:34:29.922Z,88
2023-03-05T04:35:02.532Z,88
2023-03-05T04:35:33.919Z,88
2023-03-05T04:36:05.650Z,88
2023-03-05T04:36:38.135Z,88
2023-03-05T04:37:09.972Z,88
2023-03-05T04:37:41.785Z,88
2023-03-05T04:38:13.635Z,88
2023-03-05T04:38:45.581Z,88
2023-03-05T04:39:17.811Z,88
2023-03-05T04:39:49.874Z,88
2023-03-05T04:40:21.812Z,88
2023-03-05T04:40:53.602Z,88
2023-03-05T04:41:25.632Z,88
2023-03-05T04:41:58.885Z,88
2023-03-05T04:42:29.489Z,88
2023-03-05T04:43:01.700Z,88
2023-03-05T04:43:17.793Z,88
2023-03-05T04:43:49.534Z,88
2023-03-05T04:44:33.515Z,88
2023-03-05T04:45:06.879Z,88
2023-03-05T04:45:37.543Z,88
2023-03-05T04:46:09.551Z,88
2023-03-05T04:46:41.595Z,88
2023-03-05T04:47:13.199Z,88
2023-03-05T04:47:45.218Z,88
2023-03-05T04:48:01.635Z,89
2023-03-05T04:48:45.395Z,89
2023-03-05T04:49:17.608Z,89
2023-03-05T04:49:49.233Z,89
2023-03-05T04:50:21.425Z,89
2023-03-05T04:50:53.279Z,89
2023-03-05T04:51:25.272Z,89
2023-03-05T04:51:57.120Z,89
2023-03-05T04:52:29.052Z,89
2023-03-05T04:53:01.483Z,89
2023-03-05T04:53:33.201Z,89
2023-03-05T04:54:05.233Z,89
2023-03-05T04:54:37.199Z,89
2023-03-05T04:55:09.251Z,89
2023-03-05T04:55:41.238Z,89
2023-03-05T04:56:12.938Z,89
2023-03-05T04:56:44.882Z,89
2023-03-05T04:57:01.537Z,89
2023-03-05T04:57:32.916Z,89
2023-03-05T04:57:49.086Z,89
2023-03-05T04:58:20.903Z,89
2023-03-05T04:58:53.031Z,89
2023-03-05T04:59:24.884Z,88
2023-03-05T04:59:57.062Z,88
2023-03-05T05:00:29.346Z,89
2023-03-05T05:01:01.066Z,89
2023-03-05T05:01:16.888Z,88
2023-03-05T05:01:48.895Z,89
2023-03-05T05:02:32.874Z,89
2023-03-05T05:03:04.888Z,89
2023-03-05T05:03:36.736Z,89
2023-03-05T05:04:08.733Z,89
2023-03-05T05:04:40.839Z,89
2023-03-05T05:05:12.794Z,89
2023-03-05T05:05:44.556Z,89
2023-03-05T05:06:00.942Z,89
2023-03-05T05:06:44.651Z,89
2023-03-05T05:07:16.608Z,89
2023-03-05T05:07:48.625Z,89
2023-03-05T05:08:20.654Z,89
2023-03-05T05:08:52.509Z,89
2023-03-05T05:09:24.556Z,89
2023-03-05T05:09:56.536Z,89
2023-03-05T05:10:28.675Z,89
2023-03-05T05:11:00.696Z,89
2023-03-05T05:11:32.461Z,89
2023-03-05T05:12:04.695Z,89
2023-03-05T05:12:36.254Z,89
2023-03-05T05:13:08.603Z,89
2023-03-05T05:13:40.473Z,89
2023-03-05T05:14:12.092Z,89
2023-03-05T05:14:44.243Z,89
2023-03-05T05:15:17.565Z,89
2023-03-05T05:15:48.341Z,89
2023-03-05T05:16:20.594Z,89
2023-03-05T05:16:52.140Z,89
2023-03-05T05:17:24.129Z,89
2023-03-05T05:17:56.361Z,89
2023-03-05T05:18:28.111Z,89
2023-03-05T05:19:00.340Z,89
2023-03-05T05:19:16.453Z,89
2023-03-05T05:19:48.189Z,89
2023-03-05T05:20:32.403Z,89
2023-03-05T05:21:04.188Z,89
2023-03-05T05:21:35.839Z,89
2023-03-05T05:22:08.014Z,89
2023-03-05T05:22:40.033Z,89
2023-03-05T05:23:11.878Z,89
2023-03-05T05:23:43.779Z,89
2023-03-05T05:24:00.306Z,89
2023-03-05T05:24:43.824Z,89
2023-03-05T05:25:16.323Z,89
2023-03-05T05:25:47.831Z,89
2023-03-05T05:26:19.880Z,89
2023-03-05T05:26:51.828Z,89
2023-03-05T05:27:23.838Z,89
2023-03-05T05:27:55.732Z,89
2023-03-05T05:28:27.704Z,89
2023-03-05T05:28:59.941Z,89
2023-03-05T05:29:31.721Z,89
2023-03-05T05:30:06.165Z,89
2023-03-05T05:30:35.507Z,89
2023-03-05T05:31:07.832Z,89
2023-03-05T05:31:39.666Z,89
2023-03-05T05:32:11.601Z,89
2023-03-05T05:32:43.575Z,89
2023-03-05T05:32:59.872Z,90
2023-03-05T05:33:31.424Z,90
2023-03-05T05:33:49.661Z,90
2023-03-05T05:34:19.436Z,90
2023-03-05T05:34:51.406Z,90
2023-03-05T05:35:26.195Z,90
2023-03-05T05:35:55.521Z,90
2023-03-05T05:36:27.428Z,90
2023-03-05T05:36:59.479Z,90
2023-03-05T05:37:15.381Z,90
2023-03-05T05:37:47.252Z,90
2023-03-05T05:38:31.432Z,90
2023-03-05T05:39:03.820Z,90
2023-03-05T05:39:35.133Z,89
2023-03-05T05:40:07.473Z,89
2023-03-05T05:40:39.334Z,89
2023-03-05T05:41:11.095Z,89
2023-03-05T05:41:43.044Z,90
2023-03-05T05:42:15.093Z,89
2023-03-05T05:42:47.141Z,89
2023-03-05T05:43:19.006Z,89
2023-03-05T05:43:50.980Z,89
2023-03-05T05:44:23.024Z,89
2023-03-05T05:44:55.071Z,89
2023-03-05T05:45:27.374Z,89
2023-03-05T05:45:59.032Z,89
2023-03-05T05:46:15.090Z,89
2023-03-05T05:46:58.982Z,89
2023-03-05T05:47:30.898Z,89
2023-03-05T05:48:03.454Z,89
2023-03-05T05:48:34.819Z,89
2023-03-05T05:49:07.028Z,89
2023-03-05T05:49:38.891Z,89
2023-03-05T05:50:11.008Z,89
2023-03-05T05:50:42.642Z,89
2023-03-05T05:51:14.675Z,90
2023-03-05T05:51:46.782Z,90
2023-03-05T05:52:18.637Z,90
2023-03-05T05:52:50.818Z,90
2023-03-05T05:53:22.683Z,90
2023-03-05T05:53:54.645Z,90
2023-03-05T05:54:26.525Z,90
2023-03-05T05:54:58.624Z,90
2023-03-05T05:55:14.939Z,90
2023-03-05T05:55:46.447Z,90
2023-03-05T05:56:30.630Z,90
2023-03-05T05:57:02.856Z,90
2023-03-05T05:57:34.399Z,90
2023-03-05T05:58:06.664Z,90
2023-03-05T05:58:38.492Z,90
2023-03-05T05:59:10.341Z,90
2023-03-05T05:59:42.333Z,90
2023-03-05T06:00:17.274Z,90
2023-03-05T06:00:46.312Z,90
2023-03-05T06:01:18.277Z,90
2023-03-05T06:01:50.344Z,90
2023-03-05T06:02:22.358Z,90
2023-03-05T06:02:54.442Z,90
2023-03-05T06:03:26.276Z,90
2023-03-05T06:03:58.210Z,90
2023-03-05T06:04:14.231Z,90
2023-03-05T06:04:58.449Z,90
2023-03-05T06:05:30.467Z,90
2023-03-05T06:06:02.482Z,90
2023-03-05T06:06:34.115Z,90
2023-03-05T06:07:06.114Z,90
2023-03-05T06:07:38.077Z,90
2023-03-05T06:08:10.136Z,90
2023-03-05T06:08:41.932Z,90
2023-03-05T06:09:13.939Z,90
2023-03-05T06:09:46.031Z,90
2023-03-05T06:10:18.325Z,90
2023-03-05T06:10:50.121Z,90
2023-03-05T06:11:22.122Z,90
2023-03-05T06:11:54.126Z,90
2023-03-05T06:12:26.040Z,90
2023-03-05T06:12:58.007Z,90
2023-03-05T06:13:30.211Z,90
2023-03-05T06:14:02.522Z,90
2023-03-05T06:14:33.952Z,90
2023-03-05T06:15:07.272Z,90
2023-03-05T06:15:38.108Z,90
2023-03-05T06:16:10.086Z,90
2023-03-05T06:16:41.989Z,90
2023-03-05T06:16:57.977Z,90
2023-03-05T06:17:41.810Z,90
2023-03-05T06:18:13.746Z,90
2023-03-05T06:18:45.620Z,90
2023-03-05T06:19:17.801Z,90
2023-03-05T06:19:49.771Z,90
2023-03-05T06:20:21.999Z,90
2023-03-05T06:20:53.755Z,90
2023-03-05T06:21:25.583Z,90
2023-03-05T06:21:57.851Z,90
2023-03-05T06:22:29.777Z,90
2023-03-05T06:23:01.942Z,90
2023-03-05T06:23:33.450Z,91
2023-03-05T06:24:05.554Z,91
2023-03-05T06:24:37.709Z,91
2023-03-05T06:25:09.755Z,91
2023-03-05T06:25:41.477Z,91
2023-03-05T06:25:58.006Z,91
2023-03-05T06:26:29.326Z,91
2023-03-05T06:26:45.419Z,91
2023-03-05T06:27:17.537Z,91
2023-03-05T06:27:49.362Z,91
2023-03-05T06:28:21.452Z,91
2023-03-05T06:28:53.412Z,91
2023-03-05T06:29:25.350Z,91
2023-03-05T06:29:57.495Z,91
2023-03-05T06:30:14.137Z,91
2023-03-05T06:30:45.284Z,91
2023-03-05T06:31:29.246Z,91
2023-03-05T06:32:01.628Z,91
2023-03-05T06:32:33.182Z,91
2023-03-05T06:33:05.402Z,91
2023-03-05T06:33:37.560Z,91
2023-03-05T06:34:09.273Z,91
2023-03-05T06:34:41.110Z,91
2023-03-05T06:35:13.322Z,91
2023-03-05T06:35:45.130Z,91
2023-03-05T06:36:17.147Z,91
2023-03-05T06:36:48.933Z,91
2023-03-05T06:37:21.072Z,91
2023-03-05T06:37:52.992Z,91
2023-03-05T06:38:25.012Z,91
2023-03-05T06:38:57.101Z,91
2023-03-05T06:39:13.052Z,91
2023-03-05T06:39:56.960Z,91
2023-03-05T06:40:29.445Z,91
2023-03-05T06:41:01.172Z,91
2023-03-05T06:41:32.712Z,91
2023-03-05T06:42:05.027Z,91
2023-03-05T06:42:36.826Z,91
2023-03-05T06:43:08.897Z,91
2023-03-05T06:43:40.765Z,91
2023-03-05T06:43:56.937Z,91
2023-03-05T06:44:28.589Z,91
2023-03-05T06:44:46.532Z,91
2023-03-05T06:45:18.018Z,91
2023-03-05T06:45:48.757Z,91
2023-03-05T06:46:20.771Z,91
2023-03-05T06:46:52.828Z,91
2023-03-05T06:47:24.632Z,91
2023-03-05T06:47:56.756Z,91
2023-03-05T06:48:12.731Z,91
2023-03-05T06:48:44.383Z,91
2023-03-05T06:49:28.701Z,91
2023-03-05T06:50:00.962Z,91
2023-03-05T06:50:32.376Z,91
2023-03-05T06:51:04.643Z,91
2023-03-05T06:51:36.446Z,91
2023-03-05T06:52:08.580Z,91
2023-03-05T06:52:40.418Z,91
2023-03-05T06:52:56.655Z,91
2023-03-05T06:53:40.446Z,91
2023-03-05T06:54:12.420Z,91
2023-03-05T06:54:44.209Z,91
2023-03-05T06:55:17.776Z,91
2023-03-05T06:55:48.413Z,91
2023-03-05T06:56:20.468Z,91
2023-03-05T06:56:52.200Z,91
2023-03-05T06:57:24.047Z,91
2023-03-05T06:57:56.321Z,91
2023-03-05T06:58:28.323Z,91
2023-03-05T06:58:59.995Z,91
2023-03-05T06:59:32.174Z,91
2023-03-05T07:00:06.249Z,91
2023-03-05T07:00:36.184Z,91
2023-03-05T07:01:08.126Z,91
2023-03-05T07:01:40.228Z,91
2023-03-05T07:01:56.349Z,91
2023-03-05T07:02:28.215Z,91
2023-03-05T07:02:44.097Z,91
2023-03-05T07:03:16.037Z,91
2023-03-05T07:03:48.164Z,91
2023-03-05T07:04:19.914Z,91
2023-03-05T07:04:52.034Z,91
2023-03-05T07:05:24.034Z,91
2023-03-05T07:05:55.819Z,91
2023-03-05T07:06:11.821Z,91
2023-03-05T07:06:43.651Z,91
2023-03-05T07:07:27.769Z,91
2023-03-05T07:07:59.526Z,91
2023-03-05T07:08:16.129Z,91
2023-03-05T07:08:47.970Z,91
2023-03-05T07:09:31.586Z,91
2023-03-05T07:10:04.567Z,91
2023-03-05T07:10:35.503Z,90
2023-03-05T07:11:07.638Z,90
2023-03-05T07:11:39.713Z,90
2023-03-05T07:12:11.612Z,90
2023-03-05T07:12:43.655Z,90
2023-03-05T07:13:15.403Z,90
2023-03-05T07:13:47.555Z,90
2023-03-05T07:14:19.486Z,90
2023-03-05T07:14:51.437Z,90
2023-03-05T07:15:23.841Z,90
2023-03-05T07:15:55.461Z,90
2023-03-05T07:16:27.518Z,90
2023-03-05T07:16:59.213Z,90
2023-03-05T07:17:31.362Z,90
2023-03-05T07:18:03.979Z,90
2023-03-05T07:18:35.339Z,90
2023-03-05T07:19:07.221Z,90
2023-03-05T07:19:39.133Z,90
2023-03-05T07:19:55.339Z,90
2023-03-05T07:20:27.458Z,90
2023-03-05T07:20:43.256Z,90
2023-03-05T07:21:15.067Z,90
2023-03-05T07:21:47.715Z,90
2023-03-05T07:22:19.157Z,89
2023-03-05T07:22:51.048Z,90
2023-03-05T07:23:22.929Z,90
2023-03-05T07:23:55.017Z,90
2023-03-05T07:24:11.165Z,90
2023-03-05T07:24:42.942Z,90
2023-03-05T07:25:27.322Z,90
2023-03-05T07:25:58.824Z,90
2023-03-05T07:26:31.017Z,90